Airfield :
LOGIN :

Register | Disclaimer

   EN    FR    IT 

 










Legend :    VFR   Marginal VFR   IFR   Intensive IFR   Very Intensive IFR
Visi :
Ceiling :
>= 8 km
>= 3000ft
5 to 8 km
1000 to 3000 ft
1500m to 5 km
500 to 1000 ft
800 to 1500m
200 to 500 ft
< 800m
< 200 ft
Symbols :   Thunderstorms  Fog  Heavy snow  Heavy precipitations  Wind > 20 kt
SIGMETs :     Misc.  Thunderstorms  Icing  Turbulence  Mountain Waves  Volcanic Ashes






- Airport Elevation : 194 ft


EBCV - Chièvres

CURRENT METAR :
  • 200103Z AUTO VRB01KT 6000 OVC130/// 10/09 Q1006 WHT

EXPIRED METARs :
  • 200054Z AUTO VRB02KT 9000 OVC140/// 10/10 Q1006 BLU
  • 200043Z AUTO 18004KT 7000 OVC140/// 10/09 Q1007 WHT
  • 200025Z AUTO 18004KT 8000 BKN140/// 10/09 Q1007 BLU
  • 192355Z AUTO 18004KT 9999 BKN140/// BKN180/// 10/09 Q1007 BLU
  • 192325Z AUTO 17004KT 9999 BKN140/// 11/10 Q1007 BLU
  • 192255Z AUTO 18003KT 9999 FEW130/// 10/09 Q1007 BLU
  • 192225Z AUTO 17004KT 9999 SCT130/// 10/10 Q1007 BLU
  • 192155Z AUTO 18004KT 9999 BKN130/// 11/10 Q1007 BLU

TAF TAF EBCV
Valid from the 19 at 19:00 until the 20 at 07:00 UTC


191541Z 1919/2007 19005KT 9999 SCT025
BECMG 2000/2002 VRB02KT
PROB30
TEMPO 2002/2007 4500 BR BY EBWM



MET'MAP, your aeronautical weather chart ! - Copyright ORBIFLY December 2007 - Disclaimer

ORBIFLY MET'MAP TEAM :

Programming & Development : Alexandra Zaïnal
Concept & Development : Baudouin d'Aumeries
Co-Development & Prog : Marc-Olivier Méhu
Technical & hardware support : Manuel Goepfert

Contact : metmap@orbifly.com




SOURCES & CREDITS :

   NOAA